Time;durP1;ratioP1;P1;durP2;ratioP2;P2;SDS_P1;SDS_P2;PMS_P1;PMS_P2;Temp;Humidity;BMP_temperature;BMP_pressure;BME280_temperature;BME280_humidity;BME280_pressure;Samples;Min_cycle;Max_cycle;Signal;HPM_P1;HPM_P2
2022/11/19 00:00:35;;;;;;;;;;;10.70;99.90;;;;;;5032574;28;19913;-84
2022/11/19 00:03:00;;;;;;;;;;;10.70;99.90;;;;;;5032056;28;19913;-84
2022/11/19 00:05:25;;;;;;;;;;;10.70;99.90;;;;;;5048694;28;19986;-84
2022/11/19 00:07:51;;;;;;;;;;;10.70;99.90;;;;;;5079922;22;19960;-87
2022/11/19 00:10:17;;;;;;;;;;;10.70;99.90;;;;;;5052773;28;20335;-86
2022/11/19 00:12:54;;;;;;;;;;;10.70;99.90;;;;;;5051403;28;19909;-87
2022/11/19 00:15:20;;;;;;;;;;;10.70;99.90;;;;;;5051470;28;19908;-86
2022/11/19 00:17:45;;;;;;;;;;;10.80;99.90;;;;;;5052609;28;20411;-87
2022/11/19 00:20:11;;;;;;;;;;;10.80;99.90;;;;;;5051407;28;19909;-86
2022/11/19 00:22:44;;;;;;;;;;;10.80;99.90;;;;;;5053150;28;19915;-86
2022/11/19 00:25:10;;;;;;;;;;;10.70;99.90;;;;;;5051618;28;19913;-86
2022/11/19 00:27:36;;;;;;;;;;;10.70;99.90;;;;;;5051919;28;19916;-86
2022/11/19 00:30:01;;;;;;;;;;;10.70;99.90;;;;;;5053222;28;19909;-86
2022/11/19 00:32:27;;;;;;;;;;;10.70;99.90;;;;;;5053211;28;19932;-86
2022/11/19 00:34:52;;;;;;;;;;;10.80;99.90;;;;;;5051510;28;20358;-86
2022/11/19 00:37:18;;;;;;;;;;;10.80;99.90;;;;;;5052859;28;19912;-87
2022/11/19 00:39:43;;;;;;;;;;;10.80;99.90;;;;;;5051678;28;19909;-87
2022/11/19 00:42:09;;;;;;;;;;;10.80;99.90;;;;;;5051796;28;19908;-86
2022/11/19 00:44:34;;;;;;;;;;;10.80;99.90;;;;;;5051453;28;19913;-87
2022/11/19 00:47:00;;;;;;;;;;;10.80;99.90;;;;;;5051866;28;20410;-86
2022/11/19 00:49:25;;;;;;;;;;;10.70;99.90;;;;;;5051795;28;19909;-86
2022/11/19 00:51:51;;;;;;;;;;;10.80;99.90;;;;;;5051753;28;19908;-86
2022/11/19 00:54:16;;;;;;;;;;;10.70;99.90;;;;;;5051301;28;19909;-87
2022/11/19 00:56:42;;;;;;;;;;;10.80;99.90;;;;;;5052674;28;19920;-87
2022/11/19 00:59:07;;;;;;;;;;;10.80;99.90;;;;;;5051880;28;19909;-85
2022/11/19 01:01:33;;;;;;;;;;;10.80;99.90;;;;;;5053446;28;20393;-86
2022/11/19 01:03:58;;;;;;;;;;;10.80;99.90;;;;;;5052209;28;20051;-85
2022/11/19 01:06:24;;;;;;;;;;;10.80;99.90;;;;;;5051581;28;19932;-85
2022/11/19 01:08:51;;;;;;;;;;;10.80;99.90;;;;;;5053710;28;19915;-88
2022/11/19 01:11:18;;;;;;;;;;;10.80;99.90;;;;;;5054796;28;19909;-88
2022/11/19 01:13:43;;;;;;;;;;;10.80;99.90;;;;;;5054723;28;19909;-85
2022/11/19 01:16:14;;;;;;;;;;;10.80;99.90;;;;;;5054932;28;19963;-85
2022/11/19 01:18:41;;;;;;;;;;;10.80;99.90;;;;;;5054908;28;20316;-85
2022/11/19 01:21:07;;;;;;;;;;;10.80;99.90;;;;;;5054997;28;19951;-85
2022/11/19 01:23:32;;;;;;;;;;;10.80;99.90;;;;;;5054570;28;19909;-85
2022/11/19 01:25:58;;;;;;;;;;;10.80;99.90;;;;;;5054814;28;19917;-85
2022/11/19 01:28:24;;;;;;;;;;;10.80;99.90;;;;;;5054753;28;20358;-85
2022/11/19 01:30:49;;;;;;;;;;;10.90;99.90;;;;;;5054764;28;19908;-85
2022/11/19 01:33:15;;;;;;;;;;;10.80;99.90;;;;;;5055379;28;19916;-88
2022/11/19 01:35:40;;;;;;;;;;;10.90;99.90;;;;;;5054724;28;19944;-88
2022/11/19 01:38:06;;;;;;;;;;;10.80;99.90;;;;;;5054194;28;20382;-86
2022/11/19 01:40:32;;;;;;;;;;;10.80;99.90;;;;;;5054248;28;19909;-85
2022/11/19 01:42:57;;;;;;;;;;;10.80;99.90;;;;;;5054028;28;20010;-88
2022/11/19 01:45:26;;;;;;;;;;;10.80;99.90;;;;;;5055324;28;19913;-88
2022/11/19 01:47:52;;;;;;;;;;;10.80;99.90;;;;;;5054037;28;19909;-88
2022/11/19 01:50:18;;;;;;;;;;;10.90;99.90;;;;;;5054166;28;20417;-86
2022/11/19 01:52:44;;;;;;;;;;;10.90;99.90;;;;;;5055278;28;19909;-88
2022/11/19 01:55:10;;;;;;;;;;;10.90;99.90;;;;;;5053911;28;19909;-88
2022/11/19 01:57:37;;;;;;;;;;;10.80;99.90;;;;;;5053847;28;19909;-87
2022/11/19 02:00:03;;;;;;;;;;;10.80;99.90;;;;;;5053985;28;20428;-88
2022/11/19 02:02:29;;;;;;;;;;;10.80;99.90;;;;;;5053731;28;19970;-87
2022/11/19 02:04:56;;;;;;;;;;;10.90;99.90;;;;;;5053576;28;19940;-85
2022/11/19 02:07:27;;;;;;;;;;;10.90;99.90;;;;;;5053956;28;20290;-85
2022/11/19 02:09:57;;;;;;;;;;;10.90;99.90;;;;;;5055237;28;20344;-85
2022/11/19 02:12:22;;;;;;;;;;;10.90;99.90;;;;;;5054053;28;19992;-85
2022/11/19 02:14:47;;;;;;;;;;;10.90;99.90;;;;;;5053622;28;19912;-85
2022/11/19 02:17:28;;;;;;;;;;;11.00;99.90;;;;;;5053713;28;20289;-84
2022/11/19 02:20:03;;;;;;;;;;;10.90;99.90;;;;;;5053904;28;20366;-84
2022/11/19 02:22:40;;;;;;;;;;;10.90;99.90;;;;;;5053788;28;20270;-85
2022/11/19 02:25:22;;;;;;;;;;;10.90;99.90;;;;;;5053367;28;19958;-84
2022/11/19 02:28:00;;;;;;;;;;;10.90;99.90;;;;;;5054745;28;19917;-85
2022/11/19 02:30:27;;;;;;;;;;;10.80;99.90;;;;;;5053533;28;20366;-84
2022/11/19 02:32:57;;;;;;;;;;;10.80;99.90;;;;;;5053363;28;19909;-86
2022/11/19 02:35:39;;;;;;;;;;;10.50;99.90;;;;;;5054872;28;20366;-85
2022/11/19 02:38:12;;;;;;;;;;;10.50;99.90;;;;;;5053240;28;20274;-85
2022/11/19 02:40:44;;;;;;;;;;;10.40;99.90;;;;;;5054725;28;19963;-85
2022/11/19 02:43:16;;;;;;;;;;;10.30;99.90;;;;;;5054491;28;19909;-85
2022/11/19 02:45:47;;;;;;;;;;;10.30;99.90;;;;;;5054350;28;19987;-85
2022/11/19 02:48:24;;;;;;;;;;;10.20;99.90;;;;;;5054666;28;19908;-85
2022/11/19 02:50:54;;;;;;;;;;;10.20;99.90;;;;;;5053869;28;19924;-86
2022/11/19 02:53:21;;;;;;;;;;;10.20;99.90;;;;;;5053943;28;20367;-86
2022/11/19 02:56:09;;;;;;;;;;;10.10;99.90;;;;;;5055414;28;20428;-85
2022/11/19 03:06:46;;;;;;;;;;;9.90;99.90;;;;;;5055960;28;19928;-85
2022/11/19 03:09:12;;;;;;;;;;;9.80;99.90;;;;;;5055166;28;19908;-85
2022/11/19 03:11:38;;;;;;;;;;;9.70;99.90;;;;;;5054607;28;19909;-85
2022/11/19 03:16:57;;;;;;;;;;;9.60;99.90;;;;;;5054211;28;19974;-88
2022/11/19 03:19:22;;;;;;;;;;;9.60;99.90;;;;;;5052452;28;19938;-88
2022/11/19 03:21:53;;;;;;;;;;;9.60;99.90;;;;;;5052315;28;20404;-89
2022/11/19 03:24:51;;;;;;;;;;;9.60;99.90;;;;;;5051989;28;19950;-85
2022/11/19 03:27:23;;;;;;;;;;;9.60;99.90;;;;;;5029932;28;19954;-86
2022/11/19 03:29:52;;;;;;;;;;;9.60;99.90;;;;;;5052153;28;19913;-87
2022/11/19 03:32:20;;;;;;;;;;;9.50;99.90;;;;;;5051818;28;19987;-88
2022/11/19 03:34:47;;;;;;;;;;;9.40;99.90;;;;;;5052766;28;19957;-85
2022/11/19 03:37:15;;;;;;;;;;;9.30;99.90;;;;;;5053720;28;19909;-85
2022/11/19 03:39:41;;;;;;;;;;;9.30;99.90;;;;;;5054142;28;20007;-85
2022/11/19 03:42:09;;;;;;;;;;;9.40;99.90;;;;;;5054864;28;19919;-85
2022/11/19 03:44:41;;;;;;;;;;;9.30;99.90;;;;;;5053562;28;20528;-85
2022/11/19 03:47:10;;;;;;;;;;;9.30;99.90;;;;;;5052473;28;20392;-85
2022/11/19 03:49:39;;;;;;;;;;;9.30;99.90;;;;;;5052300;28;19908;-85
2022/11/19 03:52:09;;;;;;;;;;;9.20;99.90;;;;;;5053645;28;20015;-85
2022/11/19 03:54:36;;;;;;;;;;;9.30;99.90;;;;;;5052083;28;19909;-87
2022/11/19 03:57:03;;;;;;;;;;;9.20;99.90;;;;;;5052003;28;19908;-87
2022/11/19 03:59:28;;;;;;;;;;;9.10;99.90;;;;;;5053304;28;19931;-87
2022/11/19 04:01:55;;;;;;;;;;;9.00;99.90;;;;;;5052025;28;19909;-87
2022/11/19 04:04:36;;;;;;;;;;;9.00;99.90;;;;;;5051975;28;19992;-85
2022/11/19 04:07:06;;;;;;;;;;;9.00;99.90;;;;;;5052218;28;19988;-85
2022/11/19 04:09:32;;;;;;;;;;;9.00;99.90;;;;;;5052500;28;19958;-85
2022/11/19 04:11:58;;;;;;;;;;;9.00;99.90;;;;;;5052377;28;19913;-87
2022/11/19 04:14:23;;;;;;;;;;;9.00;99.90;;;;;;5052687;28;20377;-84
2022/11/19 04:16:49;;;;;;;;;;;9.00;99.90;;;;;;5052147;28;19909;-85
2022/11/19 04:19:16;;;;;;;;;;;9.00;99.90;;;;;;5052258;28;20255;-86
2022/11/19 04:21:42;;;;;;;;;;;9.00;99.90;;;;;;5052203;28;19962;-85
2022/11/19 04:24:07;;;;;;;;;;;9.00;99.90;;;;;;5052899;28;19913;-84
2022/11/19 04:26:33;;;;;;;;;;;8.90;99.90;;;;;;5051901;28;19920;-85
2022/11/19 04:28:58;;;;;;;;;;;8.80;99.90;;;;;;5052227;28;19912;-85
2022/11/19 04:31:23;;;;;;;;;;;8.80;99.90;;;;;;5052451;28;19908;-85
2022/11/19 04:33:49;;;;;;;;;;;8.80;99.90;;;;;;5052878;28;20281;-87
2022/11/19 04:36:14;;;;;;;;;;;8.70;99.90;;;;;;5051647;28;19909;-87
2022/11/19 04:38:40;;;;;;;;;;;8.70;99.90;;;;;;5052769;28;20000;-87
2022/11/19 04:41:05;;;;;;;;;;;8.70;99.90;;;;;;5052825;28;20418;-87
2022/11/19 04:43:31;;;;;;;;;;;8.60;99.90;;;;;;5052669;28;19931;-88
2022/11/19 04:45:56;;;;;;;;;;;8.60;99.90;;;;;;5055544;28;19921;-87
2022/11/19 04:48:21;;;;;;;;;;;8.60;99.90;;;;;;5055607;28;19915;-87
2022/11/19 04:50:47;;;;;;;;;;;8.50;99.90;;;;;;5056203;28;19908;-86
2022/11/19 04:53:12;;;;;;;;;;;8.50;99.90;;;;;;5057133;28;20294;-85
2022/11/19 04:55:38;;;;;;;;;;;8.50;99.90;;;;;;5055924;28;19913;-85
2022/11/19 04:58:03;;;;;;;;;;;8.50;99.90;;;;;;5055800;28;19909;-85
2022/11/19 05:00:29;;;;;;;;;;;8.50;99.90;;;;;;5055996;28;20290;-85
2022/11/19 05:02:54;;;;;;;;;;;8.40;99.90;;;;;;5056731;28;20381;-85
2022/11/19 05:05:20;;;;;;;;;;;8.40;99.90;;;;;;5055722;28;19952;-85
2022/11/19 05:07:45;;;;;;;;;;;8.40;99.90;;;;;;5055375;28;20342;-85
2022/11/19 05:10:11;;;;;;;;;;;8.40;99.90;;;;;;5057490;28;19913;-85
2022/11/19 05:12:36;;;;;;;;;;;8.30;99.90;;;;;;5059138;28;20003;-86
2022/11/19 05:15:02;;;;;;;;;;;8.30;99.90;;;;;;5058107;28;19955;-85
2022/11/19 05:17:27;;;;;;;;;;;8.20;99.90;;;;;;5059725;28;19932;-86
2022/11/19 05:19:53;;;;;;;;;;;8.20;99.90;;;;;;5057789;28;19991;-85
2022/11/19 05:22:18;;;;;;;;;;;8.10;99.90;;;;;;5059619;28;20362;-85
2022/11/19 05:24:44;;;;;;;;;;;8.10;99.90;;;;;;5057339;28;20324;-85
2022/11/19 05:27:09;;;;;;;;;;;8.10;99.90;;;;;;5059314;28;19909;-86
2022/11/19 05:29:34;;;;;;;;;;;8.10;99.90;;;;;;5057297;28;19908;-85
2022/11/19 05:32:00;;;;;;;;;;;8.00;99.90;;;;;;5059060;28;19919;-85
2022/11/19 05:34:25;;;;;;;;;;;8.10;99.90;;;;;;5057192;28;20406;-86
2022/11/19 05:36:51;;;;;;;;;;;8.00;99.90;;;;;;5057347;28;19909;-85
2022/11/19 05:39:16;;;;;;;;;;;8.00;99.90;;;;;;5057077;28;19908;-86
2022/11/19 05:41:42;;;;;;;;;;;8.00;99.90;;;;;;5057572;28;19909;-86
2022/11/19 05:44:07;;;;;;;;;;;7.90;99.90;;;;;;5057471;28;19912;-86
2022/11/19 05:46:33;;;;;;;;;;;7.90;99.90;;;;;;5057821;28;19913;-85
2022/11/19 05:48:58;;;;;;;;;;;7.80;99.90;;;;;;5058220;28;19909;-86
2022/11/19 05:51:24;;;;;;;;;;;7.70;99.90;;;;;;5059569;28;19908;-85
2022/11/19 05:53:49;;;;;;;;;;;7.60;99.90;;;;;;5056977;28;20432;-86
2022/11/19 05:56:15;;;;;;;;;;;7.60;99.90;;;;;;5057463;28;19916;-87
2022/11/19 05:58:40;;;;;;;;;;;7.50;99.90;;;;;;5057461;28;19973;-86
2022/11/19 06:01:05;;;;;;;;;;;7.40;99.90;;;;;;5057587;28;19958;-85
2022/11/19 06:03:31;;;;;;;;;;;7.40;99.90;;;;;;5056627;28;19915;-85
2022/11/19 06:05:57;;;;;;;;;;;7.30;99.90;;;;;;5058315;28;19935;-86
2022/11/19 06:08:22;;;;;;;;;;;7.30;99.90;;;;;;5082619;22;20194;-86
2022/11/19 06:10:48;;;;;;;;;;;7.30;99.90;;;;;;5074981;28;19908;-87
2022/11/19 06:13:13;;;;;;;;;;;7.30;99.90;;;;;;5074699;28;19916;-87
2022/11/19 06:15:38;;;;;;;;;;;7.30;99.90;;;;;;5075440;28;19908;-87
2022/11/19 06:18:04;;;;;;;;;;;7.30;99.90;;;;;;5075044;28;20334;-88
2022/11/19 06:20:29;;;;;;;;;;;7.30;99.90;;;;;;5075100;28;19913;-87
2022/11/19 06:22:55;;;;;;;;;;;7.30;99.90;;;;;;5074601;28;19909;-87
2022/11/19 06:25:20;;;;;;;;;;;7.30;99.90;;;;;;5075053;28;19917;-87
2022/11/19 06:27:46;;;;;;;;;;;7.30;99.90;;;;;;5074134;28;19931;-87
2022/11/19 06:30:12;;;;;;;;;;;7.30;99.90;;;;;;5074955;28;20308;-86
2022/11/19 06:32:37;;;;;;;;;;;7.30;99.90;;;;;;5074874;28;19970;-86
2022/11/19 06:35:03;;;;;;;;;;;7.30;99.90;;;;;;5074772;28;19915;-86
2022/11/19 06:37:28;;;;;;;;;;;7.30;99.90;;;;;;5076579;28;19947;-87
2022/11/19 06:39:54;;;;;;;;;;;7.30;99.90;;;;;;5075196;28;19909;-86
2022/11/19 06:42:35;;;;;;;;;;;7.30;99.90;;;;;;5074772;28;19909;-86
2022/11/19 06:45:10;;;;;;;;;;;7.20;99.90;;;;;;5076252;28;20324;-87
2022/11/19 06:47:36;;;;;;;;;;;7.20;99.90;;;;;;5075473;28;19999;-86
2022/11/19 06:50:02;;;;;;;;;;;7.20;99.90;;;;;;5074362;28;20281;-86
2022/11/19 06:52:27;;;;;;;;;;;7.20;99.90;;;;;;5073891;28;20450;-86
2022/11/19 06:54:53;;;;;;;;;;;7.10;99.90;;;;;;5075110;28;19995;-87
2022/11/19 06:57:18;;;;;;;;;;;7.10;99.90;;;;;;5074706;28;19974;-88
2022/11/19 06:59:44;;;;;;;;;;;7.10;99.90;;;;;;5074700;28;20300;-86
2022/11/19 07:02:10;;;;;;;;;;;7.00;99.90;;;;;;5075613;28;20453;-86
2022/11/19 07:04:35;;;;;;;;;;;7.00;99.90;;;;;;5073559;28;20415;-87
2022/11/19 07:07:01;;;;;;;;;;;6.90;99.90;;;;;;5073221;28;19920;-88
2022/11/19 07:09:26;;;;;;;;;;;6.90;99.90;;;;;;5074065;28;19908;-86
2022/11/19 07:11:52;;;;;;;;;;;6.90;99.90;;;;;;5075462;28;19912;-86
2022/11/19 07:14:17;;;;;;;;;;;6.80;99.90;;;;;;5074592;28;19968;-86
2022/11/19 07:16:43;;;;;;;;;;;6.80;99.90;;;;;;5074017;28;19999;-87
2022/11/19 07:19:08;;;;;;;;;;;6.80;99.90;;;;;;5075557;28;19915;-86
2022/11/19 07:21:34;;;;;;;;;;;6.80;99.90;;;;;;5073749;28;19961;-86
2022/11/19 07:24:00;;;;;;;;;;;6.80;99.90;;;;;;5073443;28;20011;-86
2022/11/19 07:26:26;;;;;;;;;;;6.70;99.90;;;;;;5073717;28;20385;-85
2022/11/19 07:28:51;;;;;;;;;;;6.70;99.90;;;;;;5073480;28;19912;-86
2022/11/19 07:31:17;;;;;;;;;;;6.70;99.90;;;;;;5073739;28;19915;-86
2022/11/19 07:33:42;;;;;;;;;;;6.80;99.90;;;;;;5073293;28;19909;-87
2022/11/19 07:36:09;;;;;;;;;;;6.70;99.90;;;;;;5073406;28;19908;-87
2022/11/19 07:38:34;;;;;;;;;;;6.80;99.90;;;;;;5074641;28;19909;-86
2022/11/19 07:41:00;;;;;;;;;;;6.80;99.90;;;;;;5073850;28;19915;-87
2022/11/19 07:43:25;;;;;;;;;;;6.80;99.90;;;;;;5073167;28;19930;-86
2022/11/19 07:45:51;;;;;;;;;;;6.80;99.90;;;;;;5073570;28;19920;-86
2022/11/19 07:48:16;;;;;;;;;;;6.80;99.90;;;;;;5073025;28;20396;-85
2022/11/19 07:50:48;;;;;;;;;;;6.90;99.90;;;;;;5073484;28;19912;-86
2022/11/19 07:53:13;;;;;;;;;;;7.00;99.90;;;;;;5073458;28;19909;-85
2022/11/19 07:55:39;;;;;;;;;;;7.00;99.90;;;;;;5073406;28;19916;-86
2022/11/19 07:58:04;;;;;;;;;;;7.00;99.90;;;;;;5073542;28;19915;-85
2022/11/19 08:00:30;;;;;;;;;;;7.00;99.90;;;;;;5074905;28;19955;-85
2022/11/19 08:02:55;;;;;;;;;;;7.00;99.90;;;;;;5073045;28;19909;-85
2022/11/19 08:05:21;;;;;;;;;;;6.90;99.90;;;;;;5074779;28;19920;-86
2022/11/19 08:07:48;;;;;;;;;;;6.90;99.90;;;;;;5073765;28;20397;-85
2022/11/19 08:10:13;;;;;;;;;;;6.90;99.90;;;;;;5073335;28;20357;-86
2022/11/19 08:12:39;;;;;;;;;;;6.90;99.90;;;;;;5072786;28;20369;-87
2022/11/19 08:15:05;;;;;;;;;;;6.80;99.90;;;;;;5073170;28;19955;-85
2022/11/19 08:20:15;;;;;;;;;;;6.80;99.90;;;;;;5074690;28;19914;-86
2022/11/19 08:22:41;;;;;;;;;;;6.90;99.90;;;;;;5074482;28;19908;-86
2022/11/19 08:25:07;;;;;;;;;;;6.80;99.90;;;;;;5073044;28;19961;-85
2022/11/19 08:27:32;;;;;;;;;;;6.80;99.90;;;;;;5073165;28;20045;-85
2022/11/19 08:29:58;;;;;;;;;;;6.80;99.90;;;;;;5072941;28;19933;-86
2022/11/19 08:32:23;;;;;;;;;;;6.90;99.90;;;;;;5073434;28;19909;-87
2022/11/19 08:34:49;;;;;;;;;;;6.80;99.90;;;;;;5073420;28;19909;-86
2022/11/19 08:37:14;;;;;;;;;;;6.90;99.90;;;;;;5074687;28;19909;-86
2022/11/19 08:39:40;;;;;;;;;;;6.90;99.90;;;;;;5073482;28;19954;-85
2022/11/19 08:44:50;;;;;;;;;;;7.00;99.90;;;;;;5074801;28;20302;-86
2022/11/19 08:47:15;;;;;;;;;;;7.10;99.90;;;;;;5073125;28;19908;-85
2022/11/19 08:49:41;;;;;;;;;;;7.10;99.90;;;;;;5073545;28;19912;-85
2022/11/19 08:52:07;;;;;;;;;;;7.10;99.90;;;;;;5072744;28;19908;-84
2022/11/19 08:54:32;;;;;;;;;;;7.10;99.90;;;;;;5072978;28;20021;-85
2022/11/19 08:56:58;;;;;;;;;;;7.10;99.90;;;;;;5074435;28;19991;-86
2022/11/19 08:59:23;;;;;;;;;;;7.10;99.90;;;;;;5072837;28;20007;-85
2022/11/19 09:01:49;;;;;;;;;;;7.10;99.90;;;;;;5073122;28;19909;-85
2022/11/19 09:04:15;;;;;;;;;;;7.10;99.90;;;;;;5073501;28;19908;-86
2022/11/19 09:06:40;;;;;;;;;;;7.00;99.90;;;;;;5074651;28;19920;-88
2022/11/19 09:09:06;;;;;;;;;;;7.10;99.90;;;;;;5073010;28;20358;-85
2022/11/19 09:11:31;;;;;;;;;;;7.10;99.90;;;;;;5072930;28;19935;-85
2022/11/19 09:13:57;;;;;;;;;;;7.10;99.90;;;;;;5074156;28;19909;-86
2022/11/19 09:16:22;;;;;;;;;;;7.10;99.90;;;;;;5072843;28;19916;-86
2022/11/19 09:18:48;;;;;;;;;;;7.10;99.90;;;;;;5072991;28;19909;-85
2022/11/19 09:21:13;;;;;;;;;;;7.00;99.90;;;;;;5073393;28;19958;-85
2022/11/19 09:23:41;;;;;;;;;;;7.00;99.90;;;;;;5072996;28;19919;-86
2022/11/19 09:26:11;;;;;;;;;;;7.00;99.90;;;;;;5073237;28;19920;-84
2022/11/19 09:28:36;;;;;;;;;;;7.10;99.90;;;;;;5074562;28;19916;-86
2022/11/19 09:31:04;;;;;;;;;;;7.10;99.90;;;;;;5077019;28;19908;-86
2022/11/19 09:33:30;;;;;;;;;;;7.10;99.90;;;;;;5078207;28;19908;-85
2022/11/19 09:35:55;;;;;;;;;;;7.20;99.90;;;;;;5076941;28;19916;-85
2022/11/19 09:38:21;;;;;;;;;;;7.20;99.90;;;;;;5078424;28;19913;-84
2022/11/19 09:40:48;;;;;;;;;;;7.30;99.90;;;;;;5077464;28;19915;-85
2022/11/19 09:43:21;;;;;;;;;;;7.30;99.90;;;;;;5076844;28;19908;-85
2022/11/19 09:45:59;;;;;;;;;;;7.40;99.90;;;;;;5074113;28;19970;-86
2022/11/19 09:48:31;;;;;;;;;;;7.50;99.90;;;;;;5077461;28;19912;-86
2022/11/19 09:51:01;;;;;;;;;;;7.70;99.90;;;;;;5075972;28;19908;-84
2022/11/19 09:53:30;;;;;;;;;;;7.70;99.90;;;;;;5076802;28;19913;-86
2022/11/19 09:55:57;;;;;;;;;;;7.70;99.90;;;;;;5076280;28;19908;-85
2022/11/19 09:58:30;;;;;;;;;;;7.60;99.90;;;;;;5082585;28;20353;-86
2022/11/19 10:00:55;;;;;;;;;;;7.50;99.90;;;;;;5096467;28;19962;-87
2022/11/19 10:03:21;;;;;;;;;;;7.50;99.90;;;;;;5097288;28;20266;-84
2022/11/19 10:05:55;;;;;;;;;;;7.40;99.90;;;;;;5097634;28;19912;-85
2022/11/19 10:08:31;;;;;;;;;;;7.30;99.90;;;;;;5096478;28;19920;-85
2022/11/19 10:10:59;;;;;;;;;;;7.30;99.90;;;;;;5098651;28;19929;-82
2022/11/19 10:13:35;;;;;;;;;;;7.30;99.90;;;;;;5113652;28;19912;-84
2022/11/19 10:16:21;;;;;;;;;;;7.30;99.90;;;;;;5082599;28;19909;-84
2022/11/19 10:19:02;;;;;;;;;;;7.40;99.90;;;;;;5062959;28;19909;-82
2022/11/19 10:21:27;;;;;;;;;;;7.40;99.90;;;;;;5064360;28;19991;-84
2022/11/19 10:24:05;;;;;;;;;;;7.40;99.90;;;;;;5063657;28;19909;-84
2022/11/19 10:26:33;;;;;;;;;;;7.50;99.90;;;;;;5062005;28;20037;-83
2022/11/19 10:28:58;;;;;;;;;;;7.40;99.90;;;;;;5078668;28;20382;-83
2022/11/19 10:31:27;;;;;;;;;;;7.40;99.90;;;;;;5078944;28;19950;-85
2022/11/19 10:34:01;;;;;;;;;;;7.40;99.90;;;;;;5063457;28;19909;-84
2022/11/19 10:36:30;;;;;;;;;;;7.30;99.90;;;;;;5079995;28;19977;-85
2022/11/19 10:39:00;;;;;;;;;;;7.30;99.90;;;;;;5064345;28;19909;-85
2022/11/19 10:41:41;;;;;;;;;;;7.40;99.90;;;;;;5076814;28;19909;-83
2022/11/19 10:44:36;;;;;;;;;;;7.40;99.90;;;;;;5076355;28;19991;-84
2022/11/19 10:47:01;;;;;;;;;;;7.40;99.90;;;;;;5062501;28;19960;-84
2022/11/19 10:49:26;;;;;;;;;;;7.50;99.90;;;;;;5075893;28;20270;-84
2022/11/19 10:51:52;;;;;;;;;;;7.50;99.90;;;;;;5076255;28;19909;-86
2022/11/19 10:54:24;;;;;;;;;;;7.40;99.90;;;;;;5078134;28;19909;-83
2022/11/19 10:56:51;;;;;;;;;;;7.40;99.90;;;;;;5076500;28;19916;-83
2022/11/19 10:59:18;;;;;;;;;;;7.40;99.90;;;;;;5061217;28;19909;-84
2022/11/19 11:01:46;;;;;;;;;;;7.50;99.90;;;;;;5076329;28;20278;-84
2022/11/19 11:04:22;;;;;;;;;;;7.60;99.90;;;;;;5074654;28;20354;-84
2022/11/19 11:06:48;;;;;;;;;;;7.60;99.90;;;;;;5060231;28;19916;-84
2022/11/19 11:09:33;;;;;;;;;;;7.60;99.90;;;;;;5075353;28;19909;-83
2022/11/19 11:15:14;;;;;;;;;;;7.50;99.90;;;;;;5055570;28;20328;-84
2022/11/19 11:17:41;;;;;;;;;;;7.50;99.90;;;;;;5054543;28;19916;-84
2022/11/19 11:20:19;;;;;;;;;;;7.50;99.90;;;;;;5055585;28;19995;-82
2022/11/19 11:22:47;;;;;;;;;;;7.50;99.90;;;;;;5055632;28;20323;-83
2022/11/19 11:25:26;;;;;;;;;;;7.50;99.90;;;;;;5071149;28;19913;-82
2022/11/19 11:28:06;;;;;;;;;;;7.50;99.90;;;;;;5070991;28;19920;-82
2022/11/19 11:30:33;;;;;;;;;;;7.60;99.90;;;;;;5055475;28;19956;-82
2022/11/19 11:33:16;;;;;;;;;;;7.70;99.90;;;;;;5070804;28;19994;-83
2022/11/19 11:35:42;;;;;;;;;;;7.80;99.90;;;;;;5057674;28;19948;-83
2022/11/19 11:38:08;;;;;;;;;;;7.90;99.90;;;;;;5057644;28;19913;-82
2022/11/19 11:40:34;;;;;;;;;;;7.80;99.90;;;;;;5057852;28;19980;-82
2022/11/19 11:42:59;;;;;;;;;;;7.80;99.90;;;;;;5070922;28;19931;-83
2022/11/19 11:45:30;;;;;;;;;;;7.80;99.90;;;;;;5069549;28;19913;-83
2022/11/19 11:47:56;;;;;;;;;;;7.80;99.90;;;;;;5053751;28;20286;-81
2022/11/19 11:50:26;;;;;;;;;;;7.80;99.90;;;;;;5053640;28;19991;-82
2022/11/19 11:52:53;;;;;;;;;;;7.90;99.90;;;;;;5053425;28;19909;-83
2022/11/19 11:55:21;;;;;;;;;;;7.90;99.90;;;;;;5053504;28;19909;-82
2022/11/19 11:57:49;;;;;;;;;;;7.90;99.90;;;;;;5053320;28;19909;-82
2022/11/19 12:00:37;;;;;;;;;;;8.00;99.90;;;;;;5052252;28;19909;-84
2022/11/19 12:03:06;;;;;;;;;;;8.10;99.90;;;;;;5053018;28;19992;-83
2022/11/19 12:05:44;;;;;;;;;;;8.10;99.90;;;;;;5053308;28;20366;-82
2022/11/19 12:08:17;;;;;;;;;;;8.10;99.90;;;;;;5070865;22;19932;-82
2022/11/19 12:10:55;;;;;;;;;;;8.20;99.90;;;;;;5052140;28;20371;-82
2022/11/19 12:13:40;;;;;;;;;;;8.20;99.90;;;;;;5052638;28;19916;-82
2022/11/19 12:16:05;;;;;;;;;;;8.10;99.90;;;;;;5060147;28;19909;-82
2022/11/19 12:18:49;;;;;;;;;;;8.00;99.90;;;;;;5051569;28;19909;-82
2022/11/19 12:21:34;;;;;;;;;;;8.10;99.90;;;;;;5061305;28;19909;-81
2022/11/19 12:24:12;;;;;;;;;;;8.10;99.90;;;;;;5059155;28;19955;-81
2022/11/19 12:26:37;;;;;;;;;;;8.10;99.90;;;;;;5051154;28;19966;-82
2022/11/19 12:29:21;;;;;;;;;;;8.10;99.90;;;;;;5055935;28;20372;-82
2022/11/19 12:31:56;;;;;;;;;;;8.00;99.90;;;;;;5051190;28;20397;-82
2022/11/19 12:34:24;;;;;;;;;;;8.10;99.90;;;;;;5051395;28;19909;-82
2022/11/19 12:36:51;;;;;;;;;;;8.10;99.90;;;;;;5051491;28;19909;-81
2022/11/19 12:39:33;;;;;;;;;;;8.00;99.90;;;;;;5051570;28;20389;-82
2022/11/19 12:42:04;;;;;;;;;;;8.10;99.90;;;;;;5051548;28;20021;-81
2022/11/19 12:44:48;;;;;;;;;;;8.10;99.90;;;;;;5050907;28;19909;-81
2022/11/19 12:47:32;;;;;;;;;;;8.10;99.90;;;;;;5051436;28;19916;-81
2022/11/19 12:50:16;;;;;;;;;;;8.10;99.90;;;;;;5052335;28;19909;-81
2022/11/19 12:52:52;;;;;;;;;;;8.10;99.90;;;;;;5052102;28;19909;-82
2022/11/19 12:55:25;;;;;;;;;;;8.00;99.90;;;;;;5059826;28;19958;-81
2022/11/19 12:58:00;;;;;;;;;;;8.00;99.90;;;;;;5054265;28;19908;-80
2022/11/19 13:00:28;;;;;;;;;;;8.00;99.90;;;;;;5054041;28;19916;-81
2022/11/19 13:03:06;;;;;;;;;;;8.00;99.90;;;;;;5051836;28;19909;-81
2022/11/19 13:05:48;;;;;;;;;;;8.00;99.90;;;;;;5055578;28;19959;-81
2022/11/19 13:08:22;;;;;;;;;;;8.00;99.90;;;;;;5057561;28;19917;-81
2022/11/19 13:10:49;;;;;;;;;;;7.90;99.90;;;;;;5056072;28;20375;-82
2022/11/19 13:13:17;;;;;;;;;;;8.00;99.90;;;;;;5055890;28;20466;-81
2022/11/19 13:15:48;;;;;;;;;;;7.90;99.90;;;;;;5055786;28;20004;-81
2022/11/19 13:18:16;;;;;;;;;;;7.90;99.90;;;;;;5055988;28;19916;-81
2022/11/19 13:20:47;;;;;;;;;;;7.90;99.90;;;;;;5056114;28;19991;-81
2022/11/19 13:23:25;;;;;;;;;;;7.80;99.90;;;;;;5059232;28;19909;-80
2022/11/19 13:25:56;;;;;;;;;;;7.90;99.90;;;;;;5056533;28;19913;-81
2022/11/19 13:28:25;;;;;;;;;;;7.80;99.90;;;;;;5056542;28;20054;-81
2022/11/19 13:30:52;;;;;;;;;;;7.80;99.90;;;;;;5057157;28;20022;-81
2022/11/19 13:33:32;;;;;;;;;;;7.80;99.90;;;;;;5055560;28;19915;-81
2022/11/19 13:36:04;;;;;;;;;;;7.70;99.90;;;;;;5056621;28;19919;-81
2022/11/19 13:38:43;;;;;;;;;;;7.60;99.90;;;;;;5055679;28;19959;-81
2022/11/19 13:41:12;;;;;;;;;;;7.50;99.90;;;;;;5055175;28;19908;-82
2022/11/19 13:47:02;;;;;;;;;;;7.60;99.90;;;;;;5045201;28;19920;-80
2022/11/19 13:49:38;;;;;;;;;;;7.50;99.90;;;;;;5055172;28;20266;-81
2022/11/19 13:52:10;;;;;;;;;;;7.50;99.90;;;;;;5056862;28;19913;-82
2022/11/19 13:54:36;;;;;;;;;;;7.50;99.90;;;;;;5054602;28;20290;-81
2022/11/19 13:57:03;;;;;;;;;;;7.50;99.90;;;;;;5054372;28;19962;-81
2022/11/19 13:59:31;;;;;;;;;;;7.50;99.90;;;;;;5055575;28;19919;-80
2022/11/19 14:02:26;;;;;;;;;;;7.50;99.90;;;;;;5055447;28;19979;-80
2022/11/19 14:05:01;;;;;;;;;;;7.50;99.90;;;;;;5055362;28;19912;-81
2022/11/19 14:07:32;;;;;;;;;;;7.60;99.90;;;;;;5054075;28;20004;-81
2022/11/19 14:10:13;;;;;;;;;;;7.60;99.90;;;;;;5054023;28;19913;-81
2022/11/19 14:12:57;;;;;;;;;;;7.60;99.90;;;;;;5061023;28;19952;-81
2022/11/19 14:27:12;;;;;;;;;;;7.60;99.90;;;;;;5055040;28;19935;-82
2022/11/19 14:29:43;;;;;;;;;;;7.70;99.90;;;;;;5053362;28;19913;-82
2022/11/19 14:32:09;;;;;;;;;;;7.60;99.90;;;;;;5053816;28;19916;-81
2022/11/19 14:34:37;;;;;;;;;;;7.60;99.90;;;;;;5053253;28;19909;-81
2022/11/19 14:37:12;;;;;;;;;;;7.60;99.90;;;;;;5053506;28;19909;-82
2022/11/19 14:39:39;;;;;;;;;;;7.60;99.90;;;;;;5053547;28;19915;-82
2022/11/19 14:42:10;;;;;;;;;;;7.50;99.90;;;;;;5053479;28;19908;-82
2022/11/19 14:44:36;;;;;;;;;;;7.50;99.90;;;;;;5053141;28;19909;-82
2022/11/19 14:47:22;;;;;;;;;;;7.50;99.90;;;;;;5053322;28;20385;-82
2022/11/19 14:49:48;;;;;;;;;;;7.50;99.90;;;;;;5045908;28;19915;-82
2022/11/19 14:52:21;;;;;;;;;;;7.50;99.90;;;;;;5053225;28;19909;-82
2022/11/19 14:54:52;;;;;;;;;;;7.50;99.90;;;;;;5053644;28;19916;-82
2022/11/19 14:57:36;;;;;;;;;;;7.50;99.90;;;;;;5053065;28;19985;-81
2022/11/19 15:00:14;;;;;;;;;;;7.50;99.90;;;;;;5053087;28;19915;-82
2022/11/19 15:02:44;;;;;;;;;;;7.50;99.90;;;;;;5052983;28;20366;-82
2022/11/19 15:05:15;;;;;;;;;;;7.40;99.90;;;;;;5053415;28;19913;-82
2022/11/19 15:07:43;;;;;;;;;;;7.40;99.90;;;;;;5052939;28;19917;-81
2022/11/19 15:10:09;;;;;;;;;;;7.40;99.90;;;;;;5054855;28;19915;-81
2022/11/19 15:12:43;;;;;;;;;;;7.40;99.90;;;;;;5053362;28;20004;-82